Time;durP1;ratioP1;P1;durP2;ratioP2;P2;SDS_P1;SDS_P2;PMS_P1;PMS_P2;Temp;Humidity;BMP_temperature;BMP_pressure;BME280_temperature;BME280_humidity;BME280_pressure;Samples;Min_cycle;Max_cycle;Signal;HPM_P1;HPM_P2
2022/05/16 00:00:35;;;;;;;5.40;2.20;;;15.10;89.00;;;;;;5090900;28;20503;-50
2022/05/16 00:03:06;;;;;;;7.60;2.83;;;14.70;88.70;;;;;;5090764;28;20472;-49
2022/05/16 00:05:33;;;;;;;9.83;3.00;;;14.70;88.90;;;;;;5091422;28;20432;-49
2022/05/16 00:08:01;;;;;;;6.17;3.30;;;15.00;89.30;;;;;;5090988;28;20475;-50
2022/05/16 00:10:27;;;;;;;7.00;3.43;;;15.20;89.80;;;;;;5090935;28;20792;-50
2022/05/16 00:12:55;;;;;;;10.50;3.07;;;14.50;89.40;;;;;;5091237;28;20454;-50
2022/05/16 00:15:24;;;;;;;6.27;2.93;;;14.90;89.90;;;;;;5091021;28;20446;-51
2022/05/16 00:17:51;;;;;;;8.03;3.57;;;14.60;89.80;;;;;;5091029;28;20462;-51
2022/05/16 00:20:19;;;;;;;4.20;2.83;;;14.60;90.00;;;;;;5090707;28;20429;-50
2022/05/16 00:22:45;;;;;;;5.63;3.10;;;14.50;90.10;;;;;;5090731;28;20538;-50
2022/05/16 00:25:15;;;;;;;6.87;3.63;;;14.10;89.90;;;;;;5090937;28;20443;-50
2022/05/16 00:27:42;;;;;;;3.77;2.77;;;14.90;90.50;;;;;;5090681;28;20433;-50
2022/05/16 00:30:12;;;;;;;7.60;2.70;;;14.40;90.20;;;;;;5090549;28;20444;-50
2022/05/16 00:32:39;;;;;;;4.90;2.60;;;14.70;90.50;;;;;;5091008;28;20482;-50
2022/05/16 00:35:07;;;;;;;5.13;2.90;;;14.50;90.50;;;;;;5090631;28;20440;-51
2022/05/16 00:37:35;;;;;;;6.40;2.83;;;14.40;90.40;;;;;;5090829;28;20428;-50
2022/05/16 00:40:02;;;;;;;8.87;3.30;;;14.40;90.50;;;;;;5090279;28;20446;-50
2022/05/16 00:42:29;;;;;;;10.80;3.50;;;14.70;90.70;;;;;;5090711;28;20479;-50
2022/05/16 00:44:55;;;;;;;5.30;2.77;;;14.40;90.50;;;;;;5091129;28;20436;-50
2022/05/16 00:47:22;;;;;;;9.60;4.37;;;14.30;90.60;;;;;;5091720;28;20433;-50
2022/05/16 00:49:52;;;;;;;10.13;3.80;;;14.30;90.60;;;;;;5090817;28;20433;-50
2022/05/16 00:52:21;;;;;;;20.57;3.27;;;14.60;90.80;;;;;;5091715;28;20459;-49
2022/05/16 00:54:52;;;;;;;6.07;3.47;;;14.20;90.60;;;;;;5092224;28;20429;-49
2022/05/16 00:57:23;;;;;;;6.97;3.70;;;14.70;91.00;;;;;;5091893;28;20432;-49
2022/05/16 00:59:54;;;;;;;8.00;3.33;;;14.50;90.80;;;;;;5091105;28;20448;-50
2022/05/16 01:05:08;;;;;;;7.60;2.97;;;14.40;90.80;;;;;;5090836;28;20435;-50
2022/05/16 01:07:38;;;;;;;7.83;3.87;;;14.50;90.90;;;;;;5090756;28;20505;-49
2022/05/16 01:10:08;;;;;;;5.70;3.30;;;14.30;90.70;;;;;;5076015;28;20451;-49
2022/05/16 01:12:36;;;;;;;8.53;3.97;;;14.10;90.60;;;;;;5094719;28;20452;-49
2022/05/16 01:15:06;;;;;;;7.80;3.40;;;14.10;90.60;;;;;;5094694;28;20432;-49
2022/05/16 01:17:32;;;;;;;9.40;3.80;;;14.20;90.70;;;;;;5094794;28;20481;-50
2022/05/16 01:19:59;;;;;;;6.10;3.77;;;14.10;90.60;;;;;;5094343;28;20438;-49
2022/05/16 01:22:30;;;;;;;6.03;2.90;;;14.50;90.80;;;;;;5094429;28;20489;-50
2022/05/16 01:25:04;;;;;;;6.60;3.60;;;14.00;90.40;;;;;;5094623;28;20555;-49
2022/05/16 01:27:41;;;;;;;8.70;2.90;;;14.40;90.60;;;;;;5094510;28;20434;-50
2022/05/16 01:30:09;;;;;;;8.77;3.60;;;13.90;90.30;;;;;;5093926;28;20434;-49
2022/05/16 01:32:35;;;;;;;8.63;3.87;;;14.10;90.50;;;;;;5094395;28;20475;-50
2022/05/16 01:35:02;;;;;;;5.50;3.13;;;14.00;90.40;;;;;;5094466;28;20459;-49
2022/05/16 01:40:11;;;;;;;8.53;3.60;;;14.30;90.60;;;;;;5094021;28;20452;-49
2022/05/16 01:42:38;;;;;;;9.07;3.97;;;14.20;90.60;;;;;;5094909;28;20612;-49
2022/05/16 01:45:06;;;;;;;5.50;3.30;;;14.40;90.70;;;;;;5094344;28;20432;-49
2022/05/16 01:47:33;;;;;;;9.33;3.60;;;14.10;90.60;;;;;;5094408;28;20439;-48
2022/05/16 01:49:59;;;;;;;9.13;3.30;;;13.80;90.60;;;;;;5094170;28;20495;-50
2022/05/16 01:52:26;;;;;;;4.93;3.10;;;14.20;90.80;;;;;;5094019;28;20809;-50
2022/05/16 01:54:54;;;;;;;5.50;3.07;;;13.80;90.70;;;;;;5094336;28;20436;-50
2022/05/16 01:57:21;;;;;;;7.33;3.50;;;14.40;91.00;;;;;;5075969;28;20444;-49
2022/05/16 01:59:47;;;;;;;8.30;3.07;;;13.80;90.80;;;;;;5094052;28;20439;-49
2022/05/16 02:02:14;;;;;;;5.17;3.30;;;13.90;90.80;;;;;;5075871;28;20503;-49
2022/05/16 02:04:40;;;;;;;6.87;3.60;;;14.20;91.00;;;;;;5093838;28;20956;-49
2022/05/16 02:07:07;;;;;;;7.27;5.20;;;14.10;91.00;;;;;;5094199;28;20436;-49
2022/05/16 02:09:34;;;;;;;5.57;3.10;;;13.80;90.80;;;;;;5093293;28;20931;-49
2022/05/16 02:12:02;;;;;;;5.20;3.10;;;13.70;90.80;;;;;;5093707;28;20482;-49
2022/05/16 02:14:28;;;;;;;6.77;3.57;;;13.50;90.70;;;;;;5093707;28;20827;-49
2022/05/16 02:16:55;;;;;;;6.00;3.67;;;13.80;90.90;;;;;;5075894;28;20435;-49
2022/05/16 02:19:21;;;;;;;7.00;2.87;;;13.90;91.00;;;;;;5092588;28;20809;-50
2022/05/16 02:24:42;;;;;;;12.13;4.17;;;13.80;90.80;;;;;;5093811;28;20532;-49
2022/05/16 02:27:12;;;;;;;5.37;3.40;;;13.60;91.00;;;;;;5093431;28;20434;-50
2022/05/16 02:29:40;;;;;;;9.97;3.60;;;13.70;91.00;;;;;;5092944;28;20959;-49
2022/05/16 02:32:07;;;;;;;7.20;3.37;;;13.80;91.10;;;;;;5093148;28;20471;-49
2022/05/16 02:34:34;;;;;;;8.13;3.67;;;13.60;90.90;;;;;;5093194;28;20764;-49
2022/05/16 02:37:01;;;;;;;7.73;3.27;;;13.70;91.10;;;;;;5093036;28;20924;-50
2022/05/16 02:39:27;;;;;;;6.17;3.50;;;14.00;91.20;;;;;;5092787;28;20448;-49
2022/05/16 02:41:54;;;;;;;10.03;3.70;;;13.70;91.10;;;;;;5092875;28;20826;-49
2022/05/16 02:44:22;;;;;;;6.23;2.93;;;13.90;91.20;;;;;;5093045;28;20847;-48
2022/05/16 02:46:49;;;;;;;6.43;2.80;;;13.60;91.00;;;;;;5092985;28;20451;-48
2022/05/16 02:49:16;;;;;;;7.70;2.77;;;13.70;91.10;;;;;;5092759;28;20434;-49
2022/05/16 02:51:43;;;;;;;5.17;2.97;;;14.00;91.30;;;;;;5074726;28;20491;-50
2022/05/16 02:54:09;;;;;;;6.10;4.07;;;13.70;91.00;;;;;;5093065;28;20432;-49
2022/05/16 02:56:36;;;;;;;7.60;3.00;;;13.50;91.00;;;;;;5092733;28;20440;-50
2022/05/16 02:59:03;;;;;;;6.40;2.77;;;14.10;91.30;;;;;;5092331;28;20436;-50
2022/05/16 03:01:34;;;;;;;7.50;2.93;;;13.50;91.00;;;;;;5092394;28;20453;-49
2022/05/16 03:04:00;;;;;;;7.00;3.13;;;13.50;90.90;;;;;;5092846;28;20481;-49
2022/05/16 03:06:27;;;;;;;10.03;3.13;;;13.50;91.00;;;;;;5091800;28;20579;-51
2022/05/16 03:08:54;;;;;;;8.90;4.30;;;13.60;90.90;;;;;;5091931;28;20440;-50
2022/05/16 03:11:22;;;;;;;6.03;3.13;;;13.40;90.90;;;;;;5091890;28;20989;-49
2022/05/16 03:13:49;;;;;;;5.47;2.73;;;13.60;90.90;;;;;;5092094;28;20435;-50
2022/05/16 03:16:17;;;;;;;9.47;3.10;;;13.50;91.00;;;;;;5092228;28;20928;-49
2022/05/16 03:18:45;;;;;;;6.63;2.97;;;13.90;91.10;;;;;;5092148;28;20440;-48
2022/05/16 03:21:12;;;;;;;6.90;3.10;;;13.60;90.90;;;;;;5092540;28;20467;-48
2022/05/16 03:23:39;;;;;;;5.70;2.97;;;13.60;90.80;;;;;;5092212;28;20490;-50
2022/05/16 03:26:05;;;;;;;7.37;3.13;;;13.70;90.80;;;;;;5092014;28;20909;-50
2022/05/16 03:28:32;;;;;;;11.90;3.00;;;14.00;90.80;;;;;;5091501;28;20792;-49
2022/05/16 03:31:01;;;;;;;6.90;3.47;;;13.70;90.70;;;;;;5091509;28;20793;-50
2022/05/16 03:33:27;;;;;;;7.90;3.23;;;13.70;90.60;;;;;;5091684;28;20436;-49
2022/05/16 03:35:56;;;;;;;5.53;3.07;;;13.60;90.50;;;;;;5092052;28;20953;-49
2022/05/16 03:41:09;;;;;;;6.13;3.27;;;13.30;90.30;;;;;;5091796;28;20443;-49
2022/05/16 03:43:37;;;;;;;6.93;3.20;;;13.80;90.50;;;;;;5091726;28;20523;-50
2022/05/16 03:46:04;;;;;;;7.17;3.37;;;13.50;90.20;;;;;;5091676;28;20844;-49
2022/05/16 03:48:30;;;;;;;10.00;3.20;;;13.80;90.50;;;;;;5073100;28;20443;-49
2022/05/16 03:50:59;;;;;;;9.60;3.47;;;13.90;90.50;;;;;;5091415;28;20923;-50
2022/05/16 03:53:25;;;;;;;7.30;3.23;;;14.00;90.40;;;;;;5091621;28;20437;-50
2022/05/16 03:55:53;;;;;;;9.93;3.23;;;13.60;90.20;;;;;;5091318;28;20442;-50
2022/05/16 03:58:19;;;;;;;7.87;2.83;;;13.90;90.30;;;;;;5091412;28;20565;-50
2022/05/16 04:00:47;;;;;;;6.80;3.27;;;13.60;90.00;;;;;;5072822;28;20444;-50
2022/05/16 04:03:15;;;;;;;8.70;3.53;;;14.10;90.20;;;;;;5091370;28;20486;-49
2022/05/16 04:05:42;;;;;;;7.60;3.70;;;14.30;90.10;;;;;;5091974;28;20446;-50
2022/05/16 04:08:10;;;;;;;7.03;3.20;;;13.90;89.40;;;;;;5091715;28;20434;-50
2022/05/16 04:10:37;;;;;;;5.47;2.90;;;14.30;89.00;;;;;;5091850;28;20435;-49
2022/05/16 04:13:03;;;;;;;7.33;3.30;;;14.30;88.10;;;;;;5091921;28;20478;-50
2022/05/16 04:15:31;;;;;;;6.73;3.23;;;14.40;87.50;;;;;;5092134;28;20939;-48
2022/05/16 04:17:58;;;;;;;5.23;3.17;;;14.90;87.40;;;;;;5091050;28;20443;-49
2022/05/16 04:20:24;;;;;;;10.27;4.13;;;14.50;85.70;;;;;;5090681;28;20426;-51
2022/05/16 04:22:51;;;;;;;4.70;2.87;;;14.90;85.80;;;;;;5072657;28;20485;-50
2022/05/16 04:25:20;;;;;;;8.57;3.70;;;15.30;85.60;;;;;;5090831;28;20719;-50
2022/05/16 04:27:47;;;;;;;7.50;3.70;;;15.10;84.60;;;;;;5072691;28;20564;-49
2022/05/16 04:30:14;;;;;;;6.37;3.20;;;15.70;84.80;;;;;;5090580;28;20460;-50
2022/05/16 04:32:41;;;;;;;7.30;3.40;;;15.80;84.20;;;;;;5115139;22;20495;-51
2022/05/16 04:35:09;;;;;;;6.00;3.00;;;15.10;83.00;;;;;;5091568;28;20455;-51
2022/05/16 04:37:35;;;;;;;8.50;3.87;;;15.60;83.00;;;;;;5091538;28;20447;-51
2022/05/16 04:40:05;;;;;;;7.23;3.00;;;15.50;82.30;;;;;;5090919;28;20437;-50
2022/05/16 04:42:41;;;;;;;8.80;3.20;;;16.00;83.00;;;;;;5090600;28;21006;-51
2022/05/16 04:45:15;;;;;;;9.13;3.00;;;16.30;82.00;;;;;;5091252;28;20774;-50
2022/05/16 04:47:43;;;;;;;8.87;2.80;;;15.90;81.00;;;;;;5091273;28;20884;-51
2022/05/16 04:50:11;;;;;;;6.60;3.17;;;15.70;80.60;;;;;;5091099;28;20428;-50
2022/05/16 04:52:38;;;;;;;7.60;3.03;;;16.30;80.60;;;;;;5091024;28;20868;-50
2022/05/16 04:55:05;;;;;;;7.73;3.27;;;16.50;80.40;;;;;;5091304;28;20462;-49
2022/05/16 04:57:34;;;;;;;8.33;4.37;;;16.30;79.80;;;;;;5091040;28;20538;-50
2022/05/16 05:00:00;;;;;;;7.90;3.60;;;16.30;79.30;;;;;;5090718;28;20435;-50
2022/05/16 05:02:27;;;;;;;8.37;4.27;;;16.80;79.40;;;;;;5091144;28;20452;-49
2022/05/16 05:04:54;;;;;;;7.30;4.00;;;16.60;78.90;;;;;;5091093;28;20472;-50
2022/05/16 05:07:20;;;;;;;16.03;3.33;;;16.80;78.60;;;;;;5090851;28;20798;-51
2022/05/16 05:15:18;;;;;;;7.20;3.43;;;17.30;78.00;;;;;;5091087;28;20430;-50
2022/05/16 05:17:45;;;;;;;10.03;4.47;;;16.90;77.20;;;;;;5091004;28;20429;-50
2022/05/16 05:20:14;;;;;;;8.30;3.53;;;17.20;77.20;;;;;;5090729;28;20437;-49
2022/05/16 05:22:41;;;;;;;5.13;2.60;;;17.30;76.40;;;;;;5090792;28;20456;-50
2022/05/16 05:25:10;;;;;;;5.60;3.00;;;17.50;76.30;;;;;;5090964;28;20437;-50
2022/05/16 05:27:38;;;;;;;7.83;3.23;;;17.10;75.40;;;;;;5090833;28;20438;-51
2022/05/16 05:30:06;;;;;;;9.10;3.13;;;16.90;74.90;;;;;;5090655;28;20468;-51
2022/05/16 05:32:33;;;;;;;9.80;3.60;;;17.30;74.80;;;;;;5090653;28;20467;-52
2022/05/16 05:35:00;;;;;;;6.60;3.10;;;17.20;74.30;;;;;;5090776;28;20434;-51
2022/05/16 05:37:26;;;;;;;10.00;3.47;;;17.40;74.10;;;;;;5090900;28;20430;-50
2022/05/16 05:39:54;;;;;;;6.17;3.20;;;17.70;74.20;;;;;;5090712;28;20914;-50
2022/05/16 05:42:21;;;;;;;6.03;3.47;;;17.70;73.80;;;;;;5090387;28;20463;-50
2022/05/16 05:44:49;;;;;;;6.90;3.77;;;18.10;74.00;;;;;;5090402;28;20470;-51
2022/05/16 05:47:15;;;;;;;10.93;3.40;;;17.50;73.00;;;;;;5090736;28;20437;-52
2022/05/16 05:49:43;;;;;;;6.37;3.17;;;17.80;73.20;;;;;;5090273;28;20926;-52
2022/05/16 05:52:10;;;;;;;7.43;3.63;;;17.90;72.80;;;;;;5090008;28;20553;-52
2022/05/16 05:54:36;;;;;;;5.77;3.30;;;18.40;73.10;;;;;;5092399;28;20860;-50
2022/05/16 05:57:06;;;;;;;9.40;3.97;;;17.90;72.00;;;;;;5093782;28;20438;-50
2022/05/16 05:59:32;;;;;;;11.33;3.10;;;18.30;72.00;;;;;;5094008;28;20795;-51
2022/05/16 06:02:00;;;;;;;5.87;3.17;;;18.00;71.50;;;;;;5094138;28;20855;-51
2022/05/16 06:04:27;;;;;;;6.90;2.93;;;18.30;71.50;;;;;;5094291;28;20662;-49
2022/05/16 06:06:54;;;;;;;5.27;3.03;;;18.30;71.20;;;;;;5094381;28;20845;-50
2022/05/16 06:09:20;;;;;;;7.37;3.37;;;18.70;71.10;;;;;;5094138;28;20442;-51
2022/05/16 06:11:48;;;;;;;6.97;3.27;;;18.20;70.40;;;;;;5094191;28;20451;-49
2022/05/16 06:14:16;;;;;;;8.40;3.40;;;18.30;70.00;;;;;;5093582;28;20439;-49
2022/05/16 06:16:42;;;;;;;7.30;3.03;;;18.40;70.10;;;;;;5094145;28;20438;-51
2022/05/16 06:19:11;;;;;;;10.37;2.70;;;18.60;70.20;;;;;;5093932;28;20427;-49
2022/05/16 06:21:38;;;;;;;7.90;3.27;;;18.80;70.00;;;;;;5093943;28;20999;-51
2022/05/16 06:25:31;;;;;;;7.37;3.53;;;18.90;70.10;;;;;;5093746;28;20898;-50
2022/05/16 06:26:52;;;;;;;8.70;3.23;;;18.90;70.00;;;;;;5093526;28;20787;-51
2022/05/16 06:29:19;;;;;;;5.37;2.73;;;18.90;69.80;;;;;;5093764;28;20434;-50
2022/05/16 06:31:46;;;;;;;4.80;2.97;;;18.80;69.00;;;;;;5093282;28;20834;-50
2022/05/16 06:34:14;;;;;;;8.00;3.20;;;18.90;69.10;;;;;;5093686;28;20523;-51
2022/05/16 06:36:41;;;;;;;8.33;3.27;;;19.00;68.60;;;;;;5093635;28;20428;-52
2022/05/16 06:39:07;;;;;;;9.90;3.43;;;18.90;68.60;;;;;;5093055;28;21010;-51
2022/05/16 06:41:34;;;;;;;7.23;2.50;;;19.10;68.60;;;;;;5075078;28;20491;-51
2022/05/16 06:44:01;;;;;;;7.87;3.70;;;19.30;68.90;;;;;;5093247;28;20483;-52
2022/05/16 06:46:27;;;;;;;7.00;3.43;;;19.10;68.40;;;;;;5093477;28;20432;-51
2022/05/16 06:48:54;;;;;;;6.07;2.97;;;19.20;68.10;;;;;;5074622;28;20452;-50
2022/05/16 06:51:22;;;;;;;10.73;3.37;;;18.70;68.10;;;;;;5092774;28;20428;-51
2022/05/16 06:53:51;;;;;;;7.13;3.10;;;19.00;67.00;;;;;;5093116;28;20468;-50
2022/05/16 06:56:17;;;;;;;7.10;4.03;;;19.40;67.20;;;;;;5093417;28;20478;-49
2022/05/16 06:58:44;;;;;;;7.27;2.70;;;19.00;66.60;;;;;;5092665;28;20986;-51
2022/05/16 07:01:11;;;;;;;5.97;2.73;;;19.10;66.30;;;;;;5093300;28;20443;-50
2022/05/16 07:03:40;;;;;;;8.50;2.83;;;19.40;66.60;;;;;;5093019;28;20519;-51
2022/05/16 07:06:07;;;;;;;9.63;3.03;;;19.00;66.00;;;;;;5073856;28;20448;-50
2022/05/16 07:08:35;;;;;;;6.10;3.13;;;19.40;66.60;;;;;;5092612;28;20532;-51
2022/05/16 07:11:02;;;;;;;6.67;2.83;;;19.30;66.60;;;;;;5093222;28;20451;-50
2022/05/16 07:13:29;;;;;;;5.60;3.40;;;18.90;65.90;;;;;;5092488;28;20456;-51
2022/05/16 07:15:56;;;;;;;8.80;3.40;;;19.80;66.80;;;;;;5074657;28;20447;-51
2022/05/16 07:18:23;;;;;;;6.27;2.50;;;19.30;66.20;;;;;;5092600;28;20489;-50
2022/05/16 07:20:50;;;;;;;7.00;3.00;;;19.50;67.00;;;;;;5092686;28;20807;-50
2022/05/16 07:23:17;;;;;;;9.70;2.70;;;19.50;66.00;;;;;;5092292;28;20471;-50
2022/05/16 07:28:29;;;;;;;4.47;3.30;;;19.40;65.80;;;;;;5090601;28;20576;-51
2022/05/16 07:30:56;;;;;;;9.47;3.47;;;19.80;66.00;;;;;;5092457;28;20462;-51
2022/05/16 07:33:23;;;;;;;7.83;2.77;;;19.60;65.60;;;;;;5092066;28;20479;-53
2022/05/16 07:35:52;;;;;;;9.00;2.97;;;19.90;65.80;;;;;;5072045;28;20682;-51
2022/05/16 07:38:19;;;;;;;5.93;3.20;;;19.50;65.30;;;;;;5091468;28;20792;-51
2022/05/16 07:40:48;;;;;;;9.87;3.40;;;19.70;65.60;;;;;;5091627;28;21039;-51
2022/05/16 07:43:15;;;;;;;17.10;3.73;;;19.60;65.50;;;;;;5091864;28;20452;-52
2022/05/16 07:45:42;;;;;;;8.03;3.07;;;19.70;65.70;;;;;;5091774;28;20483;-51
2022/05/16 07:48:09;;;;;;;4.80;2.70;;;19.50;65.20;;;;;;5092152;28;20943;-52
2022/05/16 07:50:37;;;;;;;6.03;2.60;;;19.60;65.10;;;;;;5091728;28;20807;-52
2022/05/16 07:53:04;;;;;;;6.63;2.73;;;19.70;65.00;;;;;;5073717;28;20457;-50
2022/05/16 07:55:31;;;;;;;5.70;3.50;;;19.80;65.10;;;;;;5090930;28;20520;-53
2022/05/16 07:57:59;;;;;;;5.73;3.20;;;20.20;64.20;;;;;;5092122;28;20283;-51
2022/05/16 08:00:26;;;;;;;6.10;2.60;;;20.10;64.00;;;;;;5073223;28;20450;-53
2022/05/16 08:02:53;;;;;;;5.87;3.30;;;20.10;64.20;;;;;;5091574;28;20460;-52
2022/05/16 08:05:21;;;;;;;7.60;2.40;;;20.00;64.10;;;;;;5091751;28;20556;-52
2022/05/16 08:10:32;;;;;;;4.80;2.63;;;19.70;63.60;;;;;;5091098;28;20512;-51
2022/05/16 08:13:03;;;;;;;9.93;3.20;;;19.60;63.30;;;;;;5071268;28;20459;-52
2022/05/16 08:15:33;;;;;;;7.80;3.03;;;19.70;63.60;;;;;;5053180;28;20451;-52
2022/05/16 08:18:02;;;;;;;9.63;3.08;;;20.10;64.00;;;;;;5070313;28;20445;-49
2022/05/16 08:20:30;;;;;;;15.23;3.07;;;20.50;62.90;;;;;;5079387;28;20520;-52
2022/05/16 08:22:57;;;;;;;8.47;3.27;;;20.20;63.00;;;;;;5090972;28;20469;-52
2022/05/16 08:25:24;;;;;;;7.00;3.20;;;20.50;63.50;;;;;;5091579;28;20926;-52
2022/05/16 08:27:51;;;;;;;6.63;2.53;;;20.30;63.40;;;;;;5091107;28;20804;-51
2022/05/16 08:30:20;;;;;;;9.10;2.70;;;20.60;63.50;;;;;;5090988;28;20437;-51
2022/05/16 08:32:48;;;;;;;5.93;2.70;;;20.30;62.90;;;;;;5090787;28;20522;-51
2022/05/16 08:35:16;;;;;;;5.10;2.33;;;20.00;62.40;;;;;;5088462;28;20438;-50
2022/05/16 08:40:35;;;;;;;10.55;3.00;;;20.60;62.60;;;;;;5090635;28;20904;-50
2022/05/16 08:43:08;;;;;;;8.60;3.30;;;20.80;62.30;;;;;;5091062;28;20214;-53
2022/05/16 08:45:39;;;;;;;5.03;2.70;;;20.60;62.10;;;;;;5090923;28;20526;-50
2022/05/16 08:48:12;;;;;;;8.53;2.60;;;20.50;62.10;;;;;;5091311;28;20936;-51
2022/05/16 08:50:42;;;;;;;5.40;2.10;;;20.50;61.30;;;;;;5090820;28;20435;-51
2022/05/16 08:53:14;;;;;;;7.13;2.53;;;20.70;61.10;;;;;;5091113;28;20471;-51
2022/05/16 08:55:47;;;;;;;5.93;2.50;;;20.40;61.20;;;;;;5089863;28;20438;-51
2022/05/16 08:58:27;;;;;;;5.63;3.10;;;20.60;62.20;;;;;;5090880;28;20431;-51
2022/05/16 09:00:58;;;;;;;11.30;4.47;;;20.40;62.40;;;;;;5091341;28;20817;-52
2022/05/16 09:03:28;;;;;;;9.27;2.73;;;21.00;63.30;;;;;;5090886;28;20454;-51
2022/05/16 09:06:01;;;;;;;11.20;4.00;;;20.40;62.60;;;;;;5089175;28;20473;-54
2022/05/16 09:08:39;;;;;;;6.90;2.40;;;20.60;62.70;;;;;;5088750;28;20422;-50
2022/05/16 09:11:10;;;;;;;5.60;2.50;;;20.50;61.80;;;;;;5088931;28;20575;-52
2022/05/16 09:13:51;;;;;;;5.40;2.13;;;21.00;61.70;;;;;;5088722;28;20446;-53
2022/05/16 09:16:34;;;;;;;4.43;2.37;;;20.70;60.90;;;;;;5088896;28;20881;-51
2022/05/16 09:19:11;;;;;;;6.00;2.63;;;20.90;61.00;;;;;;5089139;28;20708;-51
2022/05/16 09:21:47;;;;;;;6.30;2.20;;;20.80;61.20;;;;;;5090939;28;20985;-52
2022/05/16 09:24:19;;;;;;;5.93;2.90;;;20.80;61.00;;;;;;5076113;28;20482;-51
2022/05/16 09:26:55;;;;;;;4.77;2.20;;;20.80;60.10;;;;;;5090772;28;20873;-53
2022/05/16 09:29:25;;;;;;;6.43;2.40;;;20.70;60.10;;;;;;5091556;28;20495;-52
2022/05/16 09:32:00;;;;;;;5.43;3.17;;;21.00;60.80;;;;;;5093821;28;20531;-51
2022/05/16 09:34:27;;;;;;;4.57;2.50;;;20.80;60.70;;;;;;5093502;28;20453;-53
2022/05/16 09:36:54;;;;;;;36.23;3.13;;;21.00;61.20;;;;;;5094480;28;20522;-50
2022/05/16 09:39:23;;;;;;;6.13;2.23;;;20.60;60.40;;;;;;5094127;28;20446;-51
2022/05/16 09:41:57;;;;;;;6.17;2.27;;;20.90;60.90;;;;;;5094510;28;20642;-52
2022/05/16 09:44:27;;;;;;;8.63;2.57;;;21.00;60.60;;;;;;5075701;28;20468;-52
2022/05/16 09:50:14;;;;;;;6.03;2.87;;;21.00;60.20;;;;;;5128735;27;20515;-50
2022/05/16 09:52:45;;;;;;;5.03;2.20;;;21.10;60.00;;;;;;5128774;28;20506;-50
2022/05/16 09:55:16;;;;;;;6.07;2.50;;;21.10;59.70;;;;;;5129451;27;20486;-51
2022/05/16 09:57:49;;;;;;;5.33;2.13;;;21.30;59.70;;;;;;5129249;27;20462;-50
2022/05/16 10:00:21;;;;;;;5.70;2.60;;;21.30;60.00;;;;;;5128946;27;20441;-50
2022/05/16 10:02:56;;;;;;;5.32;2.50;;;21.20;59.60;;;;;;5129095;22;20457;-45
2022/05/16 10:05:27;;;;;;;11.33;2.00;;;21.00;58.70;;;;;;5049253;28;20563;-45
2022/05/16 10:08:01;;;;;;;5.70;2.10;;;21.40;58.70;;;;;;5049422;28;20572;-43
2022/05/16 10:10:32;;;;;;;5.07;2.13;;;21.40;58.80;;;;;;5049269;28;20434;-45
2022/05/16 10:12:59;;;;;;;3.63;2.20;;;21.60;58.40;;;;;;5050205;28;20884;-46
2022/05/16 10:15:26;;;;;;;3.30;1.90;;;21.60;57.00;;;;;;5050169;28;20675;-46
2022/05/16 10:17:56;;;;;;;5.17;1.97;;;21.40;57.00;;;;;;5048481;28;20442;-46
2022/05/16 10:20:26;;;;;;;6.63;2.00;;;22.00;57.30;;;;;;5053923;28;20449;-44
2022/05/16 10:22:57;;;;;;;5.60;2.40;;;21.70;56.40;;;;;;5046187;28;20424;-46
2022/05/16 10:25:30;;;;;;;7.57;2.53;;;22.00;54.40;;;;;;5049437;28;20307;-47
2022/05/16 10:27:58;;;;;;;4.57;2.77;;;22.00;54.90;;;;;;5048752;28;20474;-45
2022/05/16 10:30:27;;;;;;;7.77;2.20;;;22.20;54.90;;;;;;5048001;28;20493;-46
2022/05/16 10:35:46;;;;;;;3.63;2.00;;;22.20;55.20;;;;;;5049427;28;20477;-45
2022/05/16 10:38:22;;;;;;;10.20;2.47;;;21.80;55.20;;;;;;5048445;28;20445;-46
2022/05/16 10:40:54;;;;;;;6.47;2.30;;;21.70;55.00;;;;;;5048055;28;20857;-46
2022/05/16 10:43:32;;;;;;;4.63;2.10;;;22.40;56.00;;;;;;5047591;28;20462;-44
2022/05/16 10:46:04;;;;;;;5.47;2.30;;;21.80;55.60;;;;;;5048319;28;20828;-46
2022/05/16 10:48:39;;;;;;;7.10;2.20;;;22.10;56.00;;;;;;5047381;28;20865;-47
2022/05/16 10:51:11;;;;;;;3.87;2.63;;;22.20;55.60;;;;;;5047832;28;20519;-46
2022/05/16 10:53:45;;;;;;;4.97;2.40;;;22.30;55.60;;;;;;5047846;28;20471;-46
2022/05/16 10:56:34;;;;;;;5.30;1.80;;;22.40;55.40;;;;;;5046717;28;20513;-46
2022/05/16 10:59:08;;;;;;;4.70;2.10;;;22.20;55.20;;;;;;5046073;28;20441;-45
2022/05/16 11:01:42;;;;;;;4.93;2.27;;;22.10;55.20;;;;;;5034913;28;20447;-45
2022/05/16 11:04:30;;;;;;;4.90;2.37;;;22.70;55.40;;;;;;5034019;28;20947;-46
2022/05/16 11:07:06;;;;;;;3.70;1.90;;;22.00;54.80;;;;;;5032507;28;20492;-46
2022/05/16 11:09:43;;;;;;;5.80;3.00;;;21.80;54.80;;;;;;5035126;28;20484;-45
2022/05/16 11:12:18;;;;;;;6.70;2.10;;;22.10;54.90;;;;;;5034564;28;20427;-46
2022/05/16 11:14:52;;;;;;;6.00;2.20;;;22.30;54.80;;;;;;5034474;28;20436;-46
2022/05/16 11:17:24;;;;;;;6.30;2.17;;;22.40;54.80;;;;;;5034351;28;20457;-46
2022/05/16 11:20:00;;;;;;;3.67;1.40;;;22.10;54.50;;;;;;5035224;28;20465;-46
2022/05/16 11:22:31;;;;;;;4.30;2.30;;;22.30;54.40;;;;;;5034784;28;20440;-46
2022/05/16 11:25:06;;;;;;;2.33;2.07;;;22.30;54.20;;;;;;5034987;28;20443;-46
2022/05/16 11:27:38;;;;;;;11.03;2.37;;;22.50;54.40;;;;;;5035112;28;20450;-46
2022/05/16 11:30:13;;;;;;;4.80;2.03;;;22.50;54.30;;;;;;5035084;28;20505;-45
2022/05/16 11:32:54;;;;;;;3.67;1.97;;;22.60;54.00;;;;;;5015901;28;20453;-45
2022/05/16 11:35:32;;;;;;;5.50;1.70;;;22.20;53.50;;;;;;5016030;28;20433;-46
2022/05/16 11:38:14;;;;;;;8.17;1.90;;;22.60;53.80;;;;;;5015540;28;20433;-45
2022/05/16 11:40:47;;;;;;;3.73;2.00;;;22.60;54.10;;;;;;5012986;28;20537;-45
2022/05/16 11:43:19;;;;;;;8.07;2.20;;;22.60;54.00;;;;;;5012398;28;20469;-45
2022/05/16 11:46:08;;;;;;;5.10;2.47;;;22.40;53.80;;;;;;5012802;28;20437;-45
2022/05/16 11:48:44;;;;;;;3.90;2.43;;;22.70;52.80;;;;;;5012383;28;20885;-45
2022/05/16 11:51:20;;;;;;;7.60;2.50;;;22.70;52.30;;;;;;5012616;28;20440;-46
2022/05/16 11:53:50;;;;;;;4.57;1.77;;;22.70;52.10;;;;;;5027104;28;20822;-45
2022/05/16 12:02:13;;;;;;;4.43;1.90;;;22.80;52.80;;;;;;5034281;28;20457;-45
2022/05/16 12:04:43;;;;;;;4.67;2.30;;;22.80;53.00;;;;;;5033638;28;20452;-45
2022/05/16 12:07:18;;;;;;;3.63;1.83;;;22.80;52.00;;;;;;5033859;28;20429;-47
2022/05/16 12:09:58;;;;;;;5.83;2.63;;;22.70;50.90;;;;;;5033554;28;20541;-46
2022/05/16 12:12:37;;;;;;;6.20;2.30;;;22.80;50.50;;;;;;5031985;28;20436;-46
2022/05/16 12:15:32;;;;;;;5.90;2.70;;;23.20;49.90;;;;;;5033444;28;20444;-46
2022/05/16 12:18:02;;;;;;;6.13;2.43;;;23.30;50.00;;;;;;5033426;28;20469;-46
2022/05/16 12:20:39;;;;;;;6.53;2.97;;;23.40;50.00;;;;;;5032561;28;20447;-46
2022/05/16 12:23:08;;;;;;;4.90;2.80;;;23.40;50.60;;;;;;5032763;28;20488;-46
2022/05/16 12:25:37;;;;;;;5.10;2.60;;;23.50;51.40;;;;;;5032912;28;20452;-45
2022/05/16 12:28:23;;;;;;;6.17;2.40;;;23.60;52.00;;;;;;5032865;28;20461;-46
2022/05/16 12:30:53;;;;;;;3.80;2.33;;;23.60;51.60;;;;;;5033362;28;20948;-45
2022/05/16 12:33:50;;;;;;;7.17;3.03;;;23.70;51.90;;;;;;5032156;28;20484;-45
2022/05/16 12:36:19;;;;;;;9.23;3.30;;;23.70;50.80;;;;;;5032886;28;20496;-46
2022/05/16 12:38:50;;;;;;;6.03;3.50;;;23.70;50.90;;;;;;5032176;28;20788;-47
2022/05/16 12:41:53;;;;;;;5.57;3.27;;;23.70;50.80;;;;;;5033047;28;20504;-47
2022/05/16 12:44:42;;;;;;;7.83;3.70;;;23.70;51.00;;;;;;5027940;28;20485;-45
2022/05/16 12:47:46;;;;;;;7.03;4.30;;;23.70;50.70;;;;;;5032874;28;20463;-44
2022/05/16 12:50:24;;;;;;;6.20;3.73;;;23.70;50.70;;;;;;5017099;28;20493;-47
2022/05/16 12:53:25;;;;;;;5.43;3.20;;;23.70;51.00;;;;;;5031825;28;20485;-45
2022/05/16 12:56:07;;;;;;;6.00;4.70;;;23.70;50.90;;;;;;5012625;28;20442;-45
2022/05/16 12:58:41;;;;;;;4.60;3.70;;;23.80;50.30;;;;;;5012153;28;20445;-45
2022/05/16 13:01:24;;;;;;;9.70;4.80;;;23.80;49.70;;;;;;5019451;28;20442;-46
2022/05/16 13:04:00;;;;;;;5.23;3.53;;;23.80;50.40;;;;;;5031608;28;20486;-46
2022/05/16 13:06:54;;;;;;;8.13;3.67;;;23.80;50.60;;;;;;5030994;28;20450;-46
2022/05/16 13:09:47;;;;;;;9.13;3.50;;;23.80;50.40;;;;;;5030540;28;20493;-45
2022/05/16 13:12:29;;;;;;;5.50;3.50;;;23.80;50.40;;;;;;5031988;28;20434;-47
2022/05/16 13:15:03;;;;;;;6.97;3.07;;;23.80;50.70;;;;;;5030681;28;20447;-46
2022/05/16 13:17:35;;;;;;;7.43;3.03;;;23.70;50.80;;;;;;5031840;28;20495;-46
2022/05/16 13:20:08;;;;;;;4.20;2.90;;;23.80;51.00;;;;;;5031556;28;20780;-47
2022/05/16 13:22:35;;;;;;;6.87;3.27;;;23.80;50.90;;;;;;5031863;28;20549;-46
2022/05/16 13:25:02;;;;;;;5.70;3.67;;;23.80;50.80;;;;;;5031989;28;20935;-45
2022/05/16 13:30:17;;;;;;;5.57;3.90;;;23.80;50.00;;;;;;5011679;28;20527;-46
2022/05/16 13:32:44;;;;;;;9.67;4.40;;;23.80;48.10;;;;;;5011933;28;20558;-48
2022/05/16 13:35:14;;;;;;;4.63;3.90;;;23.90;48.30;;;;;;5012066;28;20450;-46
2022/05/16 13:37:43;;;;;;;7.87;3.60;;;23.60;48.60;;;;;;5011865;28;20446;-46
2022/05/16 13:40:22;;;;;;;6.13;3.67;;;23.90;49.30;;;;;;5011943;28;20463;-46